Antholz Obertal
01.09.2026, 18:45















57 Stazions meteo
| Favoric | Stazion | Autëza | Data - ëura |
t (°C) |
N (mm) |
ff (km/h) |
bb (km/h) |
dd |
rH (%) |
p (hPa) |
sd (h) |
EG (W/m²) |
|---|---|---|---|---|---|---|---|---|---|---|---|---|
| Antholz Obertal | 1327 m | 01.09.2026, 18:45 | 18.5 | 0.1 | 3.2 | 8.3 | NW(300.8°) | 74 | 1015.2 | 04:24 | 55 | |
| Auer | 254 m | 01.09.2026, 18:45 | 28.7 | 0.0 | - | - | - | 51 | 1014.3 | 07:48 | 189 | |
| Barbian Kollmann | 463 m | 01.09.2026, 18:45 | 26.1 | 0.0 | 9.7 | 17.3 | S(182.1°) | 48 | 1013.6 | 08:03 | 55 | |
| Branzoll | 227 m | 01.09.2026, 18:45 | 28.3 | 0.0 | 18.4 | 27.7 | SV(207°) | 47 | 1013.5 | 09:13 | 103 | |
| Bulsan | 245 m | 01.09.2026, 18:45 | 28.7 | 0.0 | 7.2 | 18.4 | V(258.7°) | 43 | 1013.9 | 09:34 | 46 | |
| Burnech | 831 m | 01.09.2026, 18:45 | 24.7 | 0.0 | 10.4 | 18.7 | O(110.7°) | 45 | 1013.7 | 09:00 | 191 | |
| Corvara | 1530 m | 01.09.2026, 18:45 | 17.0 | 0.1 | 5.4 | 12.6 | S(176.1°) | 70 | 1015.5 | 04:17 | 37 | |
| Deutschnofen | 1470 m | 01.09.2026, 18:45 | 17.7 | 0.0 | 13.7 | 25.2 | SV(203.6°) | 75 | 1014.7 | 09:30 | 67 | |
| Franzensfeste Grasstein | 833 m | 01.09.2026, 18:45 | 21.7 | 0.0 | 10.1 | 15.1 | SV(241.8°) | 61 | 1013.4 | - | - | |
| Gargazon | 253 m | 01.09.2026, 18:45 | 29.1 | 0.0 | 7.2 | 13.7 | SO(125.1°) | 47 | 1014.3 | 09:49 | 168 | |
| Hintermartell | 1714 m | 01.09.2026, 18:45 | 16.0 | 0.0 | 2.5 | 4.3 | NW(304.8°) | 76 | 1018.2 | 06:39 | 60 | |
| Jenesien | 972 m | 01.09.2026, 18:45 | 21.8 | 0.0 | 8.3 | 22.7 | SO(132.2°) | 63 | 1015.2 | 08:29 | 46 | |
| Jouf de Ciarej | 1713 m | 01.09.2026, 18:45 | 16.0 | 0.0 | 3.2 | 7.6 | N(13.8°) | 75 | 1015.5 | 05:47 | 59 | |
| Kaltern Oberplanitzing | 492 m | 01.09.2026, 18:45 | 25.4 | 0.0 | 10.8 | 24.8 | SV(209.4°) | 55 | 1015.1 | 09:17 | 56 | |
| Laas Eyrs | 874 m | 01.09.2026, 18:45 | 22.9 | 0.0 | 15.5 | 22.3 | O(92°) | 57 | 1013.9 | 10:48 | 50 | |
| Laimburg | 224 m | 01.09.2026, 18:45 | 28.1 | 0.0 | 11.9 | 25.2 | SO(151.9°) | 47 | 1016.1 | 09:33 | 83 | |
| Langtaufers Grub | 1844 m | 01.09.2026, 18:45 | 15.8 | 0.0 | 10.8 | 18.4 | SV(219.8°) | 71 | 1014.2 | 09:57 | 61 | |
| Maran | 333 m | 01.09.2026, 18:45 | 27.7 | 0.0 | 3.6 | 7.2 | NO(65°) | 49 | 1014.2 | 08:26 | 39 | |
| Marienberg | 1312 m | 01.09.2026, 18:45 | 19.7 | 0.0 | - | - | - | 63 | 1014.1 | 08:19 | 45 | |
| Mühlwald | 1140 m | 01.09.2026, 18:45 | 17.7 | 0.1 | - | - | - | 82 | 1016.5 | - | - | |
| Naturns | 537 m | 01.09.2026, 18:45 | 27.1 | 0.0 | 16.6 | 26.3 | NO(60.5°) | 42 | 1014.5 | 10:55 | 174 | |
| Obervintl | 747 m | 01.09.2026, 18:45 | 21.9 | 0.1 | 2.9 | 7.6 | SO(148.4°) | 70 | 1015.0 | 06:59 | 58 | |
| Pens | 1452 m | 01.09.2026, 18:45 | 15.9 | 0.0 | - | - | - | 100 | 1016.8 | - | - | |
| Persenon | 585 m | 01.09.2026, 18:45 | 23.2 | 0.0 | 2.2 | 4.7 | NW(332.7°) | 71 | 1014.2 | 07:45 | 42 | |
| Pfelders | 1622 m | 01.09.2026, 18:45 | 16.2 | 0.1 | 0.4 | 3.6 | S(161.2°) | 82 | 1015.8 | 07:14 | 45 | |
| Pfitsch St. Jakob | 1438 m | 01.09.2026, 18:45 | 16.5 | 0.0 | 11.5 | 18.4 | O(94°) | 63 | 1016.7 | 05:56 | 19 | |
| Pflersch | 1152 m | 01.09.2026, 18:45 | 16.5 | 1.3 | 3.6 | 6.5 | NW(306.8°) | 90 | 1017.4 | 03:15 | 35 | |
| Pfunders | 1169 m | 01.09.2026, 18:45 | 18.0 | 0.0 | 3.6 | 12.6 | V(255.1°) | 60 | 1014.5 | 04:28 | 39 | |
| Platt in Passeier | 1143 m | 01.09.2026, 18:45 | 18.2 | 0.0 | 2.9 | 5.4 | S(167.3°) | 83 | 1016.1 | 07:20 | 66 | |
| Prettau | 1448 m | 01.09.2026, 18:45 | 16.6 | 0.0 | 6.8 | 10.4 | SO(150.2°) | 78 | 1015.8 | 07:50 | 52 | |
| Radein | 1550 m | 01.09.2026, 18:45 | 17.7 | 0.0 | 11.2 | 22.0 | SV(204.8°) | 68 | 1016.3 | 06:26 | 92 | |
| Rein in Taufers | 1562 m | 01.09.2026, 18:45 | 14.7 | 0.2 | 4.3 | 8.3 | SO(124.8°) | 94 | 1016.4 | 07:39 | 28 | |
| Ridnaun | 1365 m | 01.09.2026, 18:45 | 19.3 | 0.0 | - | - | - | 69 | 1018.0 | - | - | |
| Ritten Siffian | 989 m | 01.09.2026, 18:45 | 22.0 | 0.0 | 15.5 | 22.0 | V(274.6°) | 60 | 1014.6 | 09:11 | 98 | |
| S. Martin de Tor | 1151 m | 01.09.2026, 18:45 | 19.3 | 0.1 | 2.5 | 5.8 | V(290.9°) | 81 | 1017.5 | 07:08 | 25 | |
| Salurn | 214 m | 01.09.2026, 18:45 | 27.6 | 0.0 | 16.2 | 27.0 | V(291.8°) | 46 | 1015.7 | 02:20 | 59 | |
| Sand i.T. Mühlen | 850 m | 01.09.2026, 18:45 | 21.6 | 0.0 | 5.8 | 11.2 | NW(293.8°) | 71 | 1014.7 | 04:51 | 72 | |
| Sarnthein | 970 m | 01.09.2026, 18:45 | 22.1 | 0.0 | 13.7 | 23.4 | SO(145.4°) | 66 | 1014.9 | 06:50 | 52 | |
| Schnals Vernagt | 1697 m | 01.09.2026, 18:45 | 16.6 | 0.0 | - | - | - | 83 | 1016.3 | - | - | |
| Sëlva | 1594 m | 01.09.2026, 18:45 | 15.8 | 0.1 | - | - | - | 91 | 1016.2 | - | - | |
| Sexten | 1322 m | 01.09.2026, 18:45 | 17.6 | 0.0 | 10.8 | 19.4 | SO(147°) | 69 | 1014.7 | 07:23 | 32 | |
| St. Magdalena in Gsies | 1414 m | 01.09.2026, 18:45 | 17.7 | 0.0 | 3.2 | 5.4 | O(82.6°) | 81 | 1019.2 | 04:15 | 75 | |
| St. Martin in Passeier | 588 m | 01.09.2026, 18:45 | 23.0 | 0.0 | 3.2 | 5.8 | NO(36.8°) | 80 | 1016.2 | 05:33 | 29 | |
| St. Valentin a.d. Haide | 1500 m | 01.09.2026, 18:45 | 17.5 | 0.0 | 4.3 | 6.5 | SV(234.7°) | 80 | 1014.7 | 05:39 | 62 | |
| St. Veit in Prags | 1350 m | 01.09.2026, 18:45 | 16.9 | 0.2 | - | - | - | 86 | 1018.3 | - | - | |
| St. Walburg | 1142 m | 01.09.2026, 18:45 | 19.9 | 0.0 | 1.4 | 4.3 | NW(296.8°) | 80 | 1015.5 | 05:13 | 50 | |
| Sterzing | 939 m | 01.09.2026, 18:45 | 21.3 | 0.0 | 20.9 | 31.0 | N(358.1°) | 56 | 1016.0 | 09:23 | 58 | |
| Sulaneres | 698 m | 01.09.2026, 18:45 | 25.0 | 0.0 | 11.2 | 22.7 | SO(142.7°) | 63 | 1013.9 | 11:10 | 66 | |
| Sulden | 1902 m | 01.09.2026, 18:45 | 13.0 | 0.0 | - | - | - | 82 | 1016.2 | 07:19 | 42 | |
| Terenten | 1350 m | 01.09.2026, 18:45 | 19.7 | 0.0 | 10.8 | 17.6 | V(279.5°) | 60 | 1014.3 | 08:23 | 121 | |
| Toblach | 1218 m | 01.09.2026, 18:45 | 19.6 | 0.1 | 13.7 | 19.4 | O(79.6°) | 62 | 1016.4 | 06:51 | 105 | |
| Ulten Weißbrunn | 1883 m | 01.09.2026, 18:45 | 14.6 | 0.0 | - | - | - | 81 | 1016.3 | 05:25 | 50 | |
| Vals | 1409 m | 01.09.2026, 18:45 | 17.4 | 0.2 | 1.4 | 4.7 | NW(294.4°) | 85 | 1016.2 | 04:58 | 77 | |
| Valsperch | 1129 m | 01.09.2026, 18:45 | 20.1 | 0.1 | 4.7 | 11.5 | SO(112.8°) | 63 | 1015.9 | 06:55 | 63 | |
| Villnöss | 1327 m | 01.09.2026, 18:45 | 19.4 | 0.0 | 9.0 | 15.1 | NW(316.6°) | 65 | 1014.8 | 09:49 | 39 | |
| Völs am Schlern | 840 m | 01.09.2026, 18:45 | 22.8 | 0.0 | 3.2 | 8.3 | SV(202.9°) | 60 | 1017.6 | 08:51 | 45 | |
| Welschnofen | 1126 m | 01.09.2026, 18:45 | 20.9 | 0.0 | - | - | - | 69 | 1015.8 | 07:56 | 45 |
Lijënda di dac muserei:
t:Temperatura dl'aria (°C)
N:Prezipitazions do mesanuet (mm)
ff:Slune mesan dl vënt (km/h)
bb:Majer slune dl vënt (km/h)
dd:Direzion dl vënt
rH:Tume relatif (%)
p:Prescion dl'aria (hPa)
sd:Dureda dl surëdl (h)
EG:Raiazion dl surëdl (W/m²)